sensor_id;sensor_type;location;lat;lon;timestamp;temperature;humidity
25973;DHT22;13765;51.166;4.466;2023-01-29T00:02:02;0.50;99.90
25973;DHT22;13765;51.166;4.466;2023-01-29T00:04:29;0.50;99.90
25973;DHT22;13765;51.166;4.466;2023-01-29T00:06:54;0.60;99.90
25973;DHT22;13765;51.166;4.466;2023-01-29T00:09:23;0.60;99.90
25973;DHT22;13765;51.166;4.466;2023-01-29T00:11:51;0.70;99.90
25973;DHT22;13765;51.166;4.466;2023-01-29T00:14:18;0.60;99.90
25973;DHT22;13765;51.166;4.466;2023-01-29T00:16:44;0.60;99.90
25973;DHT22;13765;51.166;4.466;2023-01-29T00:19:12;0.60;99.90
25973;DHT22;13765;51.166;4.466;2023-01-29T00:21:41;0.50;99.90
25973;DHT22;13765;51.166;4.466;2023-01-29T00:24:07;0.50;99.90
25973;DHT22;13765;51.166;4.466;2023-01-29T00:26:33;0.50;99.90
25973;DHT22;13765;51.166;4.466;2023-01-29T00:28:59;0.60;99.90
25973;DHT22;13765;51.166;4.466;2023-01-29T00:31:30;0.60;99.90
25973;DHT22;13765;51.166;4.466;2023-01-29T00:33:59;0.50;99.90
25973;DHT22;13765;51.166;4.466;2023-01-29T00:36:26;0.50;99.90
25973;DHT22;13765;51.166;4.466;2023-01-29T00:38:56;0.50;99.90
25973;DHT22;13765;51.166;4.466;2023-01-29T00:41:31;0.50;99.90
25973;DHT22;13765;51.166;4.466;2023-01-29T00:44:15;0.40;99.90
25973;DHT22;13765;51.166;4.466;2023-01-29T00:47:03;0.40;99.90
25973;DHT22;13765;51.166;4.466;2023-01-29T00:49:51;0.30;99.90
25973;DHT22;13765;51.166;4.466;2023-01-29T00:52:17;0.30;99.90
25973;DHT22;13765;51.166;4.466;2023-01-29T00:54:49;0.40;99.90
25973;DHT22;13765;51.166;4.466;2023-01-29T00:57:16;0.30;99.90
25973;DHT22;13765;51.166;4.466;2023-01-29T00:59:44;0.40;99.90
25973;DHT22;13765;51.166;4.466;2023-01-29T01:02:10;0.30;99.90
25973;DHT22;13765;51.166;4.466;2023-01-29T01:04:57;0.20;99.90
25973;DHT22;13765;51.166;4.466;2023-01-29T01:07:25;0.30;99.90
25973;DHT22;13765;51.166;4.466;2023-01-29T01:09:51;0.20;99.90
25973;DHT22;13765;51.166;4.466;2023-01-29T01:12:35;0.30;99.90
25973;DHT22;13765;51.166;4.466;2023-01-29T01:15:01;0.20;99.90
25973;DHT22;13765;51.166;4.466;2023-01-29T01:17:27;0.20;99.90
25973;DHT22;13765;51.166;4.466;2023-01-29T01:19:56;0.20;99.90
25973;DHT22;13765;51.166;4.466;2023-01-29T01:22:22;0.20;99.90
25973;DHT22;13765;51.166;4.466;2023-01-29T01:24:48;0.20;99.90
25973;DHT22;13765;51.166;4.466;2023-01-29T01:27:18;0.30;99.90
25973;DHT22;13765;51.166;4.466;2023-01-29T01:29:46;0.20;99.90
25973;DHT22;13765;51.166;4.466;2023-01-29T01:32:15;0.20;99.90
25973;DHT22;13765;51.166;4.466;2023-01-29T01:34:41;0.20;99.90
25973;DHT22;13765;51.166;4.466;2023-01-29T01:37:09;0.20;99.90
25973;DHT22;13765;51.166;4.466;2023-01-29T01:39:34;0.20;99.90
25973;DHT22;13765;51.166;4.466;2023-01-29T01:42:00;0.30;99.90
25973;DHT22;13765;51.166;4.466;2023-01-29T01:44:48;0.10;99.90
25973;DHT22;13765;51.166;4.466;2023-01-29T01:47:20;0.20;99.90
25973;DHT22;13765;51.166;4.466;2023-01-29T01:49:47;0.20;99.90
25973;DHT22;13765;51.166;4.466;2023-01-29T01:52:14;0.20;99.90
25973;DHT22;13765;51.166;4.466;2023-01-29T01:54:43;0.20;99.90
25973;DHT22;13765;51.166;4.466;2023-01-29T01:57:14;0.20;99.90
25973;DHT22;13765;51.166;4.466;2023-01-29T01:59:46;0.30;99.90
25973;DHT22;13765;51.166;4.466;2023-01-29T02:02:13;0.20;99.90
25973;DHT22;13765;51.166;4.466;2023-01-29T02:04:58;0.20;99.90
25973;DHT22;13765;51.166;4.466;2023-01-29T02:07:46;0.20;99.90
25973;DHT22;13765;51.166;4.466;2023-01-29T02:10:44;0.30;99.90
25973;DHT22;13765;51.166;4.466;2023-01-29T02:13:11;0.30;99.90
25973;DHT22;13765;51.166;4.466;2023-01-29T02:15:40;0.40;99.90
25973;DHT22;13765;51.166;4.466;2023-01-29T02:18:12;0.40;99.90
25973;DHT22;13765;51.166;4.466;2023-01-29T02:20:43;0.50;99.90
25973;DHT22;13765;51.166;4.466;2023-01-29T02:23:39;0.40;99.90
25973;DHT22;13765;51.166;4.466;2023-01-29T02:26:14;0.40;99.90
25973;DHT22;13765;51.166;4.466;2023-01-29T02:34:25;0.70;99.90
25973;DHT22;13765;51.166;4.466;2023-01-29T02:37:13;0.80;99.90
25973;DHT22;13765;51.166;4.466;2023-01-29T02:39:56;0.80;99.90
25973;DHT22;13765;51.166;4.466;2023-01-29T02:42:37;0.90;99.90
25973;DHT22;13765;51.166;4.466;2023-01-29T02:45:38;1.00;99.90
25973;DHT22;13765;51.166;4.466;2023-01-29T02:48:07;0.90;99.90
25973;DHT22;13765;51.166;4.466;2023-01-29T02:53:14;1.00;99.90
25973;DHT22;13765;51.166;4.466;2023-01-29T02:55:41;0.90;99.90
25973;DHT22;13765;51.166;4.466;2023-01-29T03:00:46;1.00;99.90
25973;DHT22;13765;51.166;4.466;2023-01-29T03:03:29;1.10;99.90
25973;DHT22;13765;51.166;4.466;2023-01-29T03:11:05;1.10;99.90
25973;DHT22;13765;51.166;4.466;2023-01-29T03:13:54;1.20;99.90
25973;DHT22;13765;51.166;4.466;2023-01-29T03:19:02;1.10;99.90
25973;DHT22;13765;51.166;4.466;2023-01-29T03:21:38;1.10;99.90
25973;DHT22;13765;51.166;4.466;2023-01-29T03:27:15;1.00;99.90
25973;DHT22;13765;51.166;4.466;2023-01-29T03:30:03;1.00;99.90
25973;DHT22;13765;51.166;4.466;2023-01-29T03:32:49;1.10;99.90
25973;DHT22;13765;51.166;4.466;2023-01-29T03:35:22;1.00;99.90
25973;DHT22;13765;51.166;4.466;2023-01-29T03:37:58;1.10;99.90
25973;DHT22;13765;51.166;4.466;2023-01-29T03:40:58;1.10;99.90
25973;DHT22;13765;51.166;4.466;2023-01-29T03:43:49;1.20;99.90
25973;DHT22;13765;51.166;4.466;2023-01-29T03:46:31;1.30;99.90
25973;DHT22;13765;51.166;4.466;2023-01-29T03:49:13;1.30;99.90
25973;DHT22;13765;51.166;4.466;2023-01-29T03:52:15;1.20;99.90
25973;DHT22;13765;51.166;4.466;2023-01-29T04:00:15;1.20;99.90
25973;DHT22;13765;51.166;4.466;2023-01-29T04:03:05;1.20;99.90
25973;DHT22;13765;51.166;4.466;2023-01-29T04:05:41;1.20;99.90
25973;DHT22;13765;51.166;4.466;2023-01-29T04:08:14;1.20;99.90
25973;DHT22;13765;51.166;4.466;2023-01-29T04:10:46;1.30;99.90
25973;DHT22;13765;51.166;4.466;2023-01-29T04:13:15;1.40;99.90
25973;DHT22;13765;51.166;4.466;2023-01-29T04:15:49;1.50;99.90
25973;DHT22;13765;51.166;4.466;2023-01-29T04:18:21;1.40;99.90
25973;DHT22;13765;51.166;4.466;2023-01-29T04:20:49;1.60;99.90
25973;DHT22;13765;51.166;4.466;2023-01-29T04:23:24;1.50;99.90
25973;DHT22;13765;51.166;4.466;2023-01-29T04:31:15;1.50;99.90
25973;DHT22;13765;51.166;4.466;2023-01-29T04:34:22;1.40;99.90
25973;DHT22;13765;51.166;4.466;2023-01-29T04:50:15;1.50;99.90
25973;DHT22;13765;51.166;4.466;2023-01-29T04:52:48;1.50;99.90
25973;DHT22;13765;51.166;4.466;2023-01-29T04:58:07;1.60;99.90
25973;DHT22;13765;51.166;4.466;2023-01-29T05:00:40;1.60;99.90
25973;DHT22;13765;51.166;4.466;2023-01-29T05:03:11;1.50;99.90
25973;DHT22;13765;51.166;4.466;2023-01-29T05:05:43;1.50;99.90
25973;DHT22;13765;51.166;4.466;2023-01-29T05:08:14;1.40;99.90
25973;DHT22;13765;51.166;4.466;2023-01-29T05:10:40;1.40;99.90
25973;DHT22;13765;51.166;4.466;2023-01-29T05:13:14;1.40;99.90
25973;DHT22;13765;51.166;4.466;2023-01-29T05:16:08;1.50;99.90
25973;DHT22;13765;51.166;4.466;2023-01-29T05:18:40;1.50;99.90
25973;DHT22;13765;51.166;4.466;2023-01-29T05:21:07;1.50;99.90
25973;DHT22;13765;51.166;4.466;2023-01-29T05:23:34;1.50;99.90
25973;DHT22;13765;51.166;4.466;2023-01-29T05:26:00;1.50;99.90
25973;DHT22;13765;51.166;4.466;2023-01-29T05:28:27;1.50;99.90
25973;DHT22;13765;51.166;4.466;2023-01-29T05:30:54;1.60;99.90
25973;DHT22;13765;51.166;4.466;2023-01-29T05:33:27;1.50;99.90
25973;DHT22;13765;51.166;4.466;2023-01-29T05:35:54;1.50;99.90
25973;DHT22;13765;51.166;4.466;2023-01-29T05:38:21;1.60;99.90
25973;DHT22;13765;51.166;4.466;2023-01-29T05:40:47;1.60;99.90
25973;DHT22;13765;51.166;4.466;2023-01-29T05:43:20;1.60;99.90
25973;DHT22;13765;51.166;4.466;2023-01-29T05:45:58;1.70;99.90
25973;DHT22;13765;51.166;4.466;2023-01-29T05:48:25;1.80;99.90
25973;DHT22;13765;51.166;4.466;2023-01-29T05:50:59;1.80;99.90
25973;DHT22;13765;51.166;4.466;2023-01-29T05:53:25;1.80;99.90
25973;DHT22;13765;51.166;4.466;2023-01-29T05:55:51;1.80;99.90
25973;DHT22;13765;51.166;4.466;2023-01-29T05:58:19;1.80;99.90
25973;DHT22;13765;51.166;4.466;2023-01-29T06:00:48;1.80;99.90
25973;DHT22;13765;51.166;4.466;2023-01-29T06:03:14;1.80;99.90
25973;DHT22;13765;51.166;4.466;2023-01-29T06:05:40;1.70;99.90
25973;DHT22;13765;51.166;4.466;2023-01-29T06:08:09;1.80;99.90
25973;DHT22;13765;51.166;4.466;2023-01-29T06:10:35;1.80;99.90
25973;DHT22;13765;51.166;4.466;2023-01-29T06:13:03;1.90;99.90
25973;DHT22;13765;51.166;4.466;2023-01-29T06:15:29;1.70;99.90
25973;DHT22;13765;51.166;4.466;2023-01-29T06:17:55;1.80;99.90
25973;DHT22;13765;51.166;4.466;2023-01-29T06:20:21;1.80;99.90
25973;DHT22;13765;51.166;4.466;2023-01-29T06:22:47;1.70;99.90
25973;DHT22;13765;51.166;4.466;2023-01-29T06:25:13;1.70;99.90
25973;DHT22;13765;51.166;4.466;2023-01-29T06:27:39;1.70;99.90
25973;DHT22;13765;51.166;4.466;2023-01-29T06:30:05;1.70;99.90
25973;DHT22;13765;51.166;4.466;2023-01-29T06:32:31;1.80;99.90
25973;DHT22;13765;51.166;4.466;2023-01-29T06:34:57;1.90;99.90
25973;DHT22;13765;51.166;4.466;2023-01-29T06:37:23;1.90;99.90
25973;DHT22;13765;51.166;4.466;2023-01-29T06:39:56;1.90;99.90
25973;DHT22;13765;51.166;4.466;2023-01-29T06:42:24;1.90;99.90
25973;DHT22;13765;51.166;4.466;2023-01-29T06:44:54;1.90;99.90
25973;DHT22;13765;51.166;4.466;2023-01-29T06:47:23;1.90;99.90
25973;DHT22;13765;51.166;4.466;2023-01-29T06:49:52;1.90;99.90
25973;DHT22;13765;51.166;4.466;2023-01-29T06:52:20;1.90;99.90
25973;DHT22;13765;51.166;4.466;2023-01-29T06:54:48;2.00;99.90
25973;DHT22;13765;51.166;4.466;2023-01-29T06:57:15;1.90;99.90
25973;DHT22;13765;51.166;4.466;2023-01-29T06:59:43;1.90;99.90
25973;DHT22;13765;51.166;4.466;2023-01-29T07:02:09;1.90;99.90
25973;DHT22;13765;51.166;4.466;2023-01-29T07:04:36;2.00;99.90
25973;DHT22;13765;51.166;4.466;2023-01-29T07:07:02;2.10;99.90
25973;DHT22;13765;51.166;4.466;2023-01-29T07:09:28;2.10;99.90
25973;DHT22;13765;51.166;4.466;2023-01-29T07:11:56;2.20;99.90
25973;DHT22;13765;51.166;4.466;2023-01-29T07:14:22;2.10;99.90
25973;DHT22;13765;51.166;4.466;2023-01-29T07:16:48;1.90;99.90
25973;DHT22;13765;51.166;4.466;2023-01-29T07:19:14;2.10;99.90
25973;DHT22;13765;51.166;4.466;2023-01-29T07:21:40;2.10;99.90
25973;DHT22;13765;51.166;4.466;2023-01-29T07:24:06;2.20;99.90
25973;DHT22;13765;51.166;4.466;2023-01-29T07:26:34;2.10;99.90
25973;DHT22;13765;51.166;4.466;2023-01-29T07:29:03;2.10;99.90
25973;DHT22;13765;51.166;4.466;2023-01-29T07:31:30;2.10;99.90
25973;DHT22;13765;51.166;4.466;2023-01-29T07:33:56;2.20;99.90
25973;DHT22;13765;51.166;4.466;2023-01-29T07:36:22;2.20;99.90
25973;DHT22;13765;51.166;4.466;2023-01-29T07:38:49;2.30;99.90
25973;DHT22;13765;51.166;4.466;2023-01-29T07:41:18;2.20;99.90
25973;DHT22;13765;51.166;4.466;2023-01-29T07:43:46;2.40;99.90
25973;DHT22;13765;51.166;4.466;2023-01-29T07:46:12;2.40;99.90
25973;DHT22;13765;51.166;4.466;2023-01-29T07:48:39;2.40;99.90
25973;DHT22;13765;51.166;4.466;2023-01-29T07:51:07;2.50;99.90
25973;DHT22;13765;51.166;4.466;2023-01-29T07:53:38;2.50;99.90
25973;DHT22;13765;51.166;4.466;2023-01-29T07:56:04;2.60;99.90
25973;DHT22;13765;51.166;4.466;2023-01-29T07:58:30;2.60;99.90
25973;DHT22;13765;51.166;4.466;2023-01-29T08:00:57;2.60;99.90
25973;DHT22;13765;51.166;4.466;2023-01-29T08:03:27;2.70;99.90
25973;DHT22;13765;51.166;4.466;2023-01-29T08:05:53;2.70;99.90
25973;DHT22;13765;51.166;4.466;2023-01-29T08:08:20;2.60;99.90
25973;DHT22;13765;51.166;4.466;2023-01-29T08:10:45;2.70;99.90
25973;DHT22;13765;51.166;4.466;2023-01-29T08:13:17;2.60;99.90
25973;DHT22;13765;51.166;4.466;2023-01-29T08:15:45;2.70;99.90
25973;DHT22;13765;51.166;4.466;2023-01-29T08:18:13;2.60;99.90
25973;DHT22;13765;51.166;4.466;2023-01-29T08:20:39;2.60;99.90
25973;DHT22;13765;51.166;4.466;2023-01-29T08:23:12;2.60;99.90
25973;DHT22;13765;51.166;4.466;2023-01-29T08:25:38;2.60;99.90
25973;DHT22;13765;51.166;4.466;2023-01-29T08:28:06;2.60;99.90
25973;DHT22;13765;51.166;4.466;2023-01-29T08:30:33;2.70;99.90
25973;DHT22;13765;51.166;4.466;2023-01-29T08:33:02;2.70;99.90
25973;DHT22;13765;51.166;4.466;2023-01-29T08:35:28;2.60;99.90
25973;DHT22;13765;51.166;4.466;2023-01-29T08:37:55;2.60;99.90
25973;DHT22;13765;51.166;4.466;2023-01-29T08:40:23;2.70;99.90
25973;DHT22;13765;51.166;4.466;2023-01-29T08:42:50;2.70;99.90
25973;DHT22;13765;51.166;4.466;2023-01-29T08:45:16;2.80;99.90
25973;DHT22;13765;51.166;4.466;2023-01-29T08:47:46;2.70;99.90
25973;DHT22;13765;51.166;4.466;2023-01-29T08:50:16;2.80;99.90
25973;DHT22;13765;51.166;4.466;2023-01-29T08:52:42;2.80;99.90
25973;DHT22;13765;51.166;4.466;2023-01-29T08:55:11;2.80;99.90
25973;DHT22;13765;51.166;4.466;2023-01-29T08:57:38;3.00;99.90
25973;DHT22;13765;51.166;4.466;2023-01-29T09:00:07;3.10;99.90
25973;DHT22;13765;51.166;4.466;2023-01-29T09:02:39;2.90;99.90
25973;DHT22;13765;51.166;4.466;2023-01-29T09:05:05;2.90;99.90
25973;DHT22;13765;51.166;4.466;2023-01-29T09:07:32;2.80;99.90
25973;DHT22;13765;51.166;4.466;2023-01-29T09:09:57;2.90;99.90
25973;DHT22;13765;51.166;4.466;2023-01-29T09:12:23;2.80;99.90
25973;DHT22;13765;51.166;4.466;2023-01-29T09:14:49;2.90;99.90
25973;DHT22;13765;51.166;4.466;2023-01-29T09:17:16;2.80;99.90
25973;DHT22;13765;51.166;4.466;2023-01-29T09:19:45;2.80;99.90
25973;DHT22;13765;51.166;4.466;2023-01-29T09:22:11;2.90;99.90
25973;DHT22;13765;51.166;4.466;2023-01-29T09:24:37;2.90;99.90
25973;DHT22;13765;51.166;4.466;2023-01-29T09:27:05;3.10;99.90
25973;DHT22;13765;51.166;4.466;2023-01-29T09:29:34;3.10;99.90
25973;DHT22;13765;51.166;4.466;2023-01-29T09:32:03;3.00;99.90
25973;DHT22;13765;51.166;4.466;2023-01-29T09:34:31;2.90;99.90
25973;DHT22;13765;51.166;4.466;2023-01-29T09:36:57;3.00;99.90
25973;DHT22;13765;51.166;4.466;2023-01-29T09:39:23;3.00;99.90
25973;DHT22;13765;51.166;4.466;2023-01-29T09:47:14;2.90;99.90
25973;DHT22;13765;51.166;4.466;2023-01-29T09:52:36;3.10;99.90
25973;DHT22;13765;51.166;4.466;2023-01-29T09:57:53;3.20;99.90
25973;DHT22;13765;51.166;4.466;2023-01-29T10:00:46;3.20;99.90
25973;DHT22;13765;51.166;4.466;2023-01-29T10:03:32;3.20;99.90
25973;DHT22;13765;51.166;4.466;2023-01-29T10:06:32;3.20;99.90
25973;DHT22;13765;51.166;4.466;2023-01-29T10:09:12;3.30;99.90
25973;DHT22;13765;51.166;4.466;2023-01-29T10:23:27;3.30;99.90
25973;DHT22;13765;51.166;4.466;2023-01-29T10:25:54;3.40;99.90
25973;DHT22;13765;51.166;4.466;2023-01-29T10:31:30;3.40;99.90
25973;DHT22;13765;51.166;4.466;2023-01-29T10:34:09;3.40;99.90
25973;DHT22;13765;51.166;4.466;2023-01-29T10:36:44;3.40;99.90
25973;DHT22;13765;51.166;4.466;2023-01-29T10:39:22;3.50;99.90
25973;DHT22;13765;51.166;4.466;2023-01-29T10:42:05;3.60;99.90
25973;DHT22;13765;51.166;4.466;2023-01-29T10:47:51;3.70;99.90
25973;DHT22;13765;51.166;4.466;2023-01-29T10:50:30;3.70;99.90
25973;DHT22;13765;51.166;4.466;2023-01-29T10:58:49;3.80;99.90
25973;DHT22;13765;51.166;4.466;2023-01-29T11:01:16;3.90;99.90
25973;DHT22;13765;51.166;4.466;2023-01-29T11:03:42;3.90;99.90
25973;DHT22;13765;51.166;4.466;2023-01-29T11:06:26;3.80;99.90
25973;DHT22;13765;51.166;4.466;2023-01-29T11:09:16;3.80;99.90
25973;DHT22;13765;51.166;4.466;2023-01-29T11:14:24;3.90;99.90
25973;DHT22;13765;51.166;4.466;2023-01-29T11:16:51;4.00;99.90
25973;DHT22;13765;51.166;4.466;2023-01-29T11:19:18;4.20;99.90
25973;DHT22;13765;51.166;4.466;2023-01-29T11:22:02;4.20;99.90
25973;DHT22;13765;51.166;4.466;2023-01-29T11:24:29;4.30;99.90
25973;DHT22;13765;51.166;4.466;2023-01-29T11:26:58;4.30;99.90
25973;DHT22;13765;51.166;4.466;2023-01-29T11:34:25;4.60;99.90
25973;DHT22;13765;51.166;4.466;2023-01-29T11:37:14;4.50;99.90
25973;DHT22;13765;51.166;4.466;2023-01-29T11:39:44;4.70;99.90
25973;DHT22;13765;51.166;4.466;2023-01-29T11:42:19;4.70;99.90
25973;DHT22;13765;51.166;4.466;2023-01-29T11:44:45;4.80;99.90
25973;DHT22;13765;51.166;4.466;2023-01-29T11:52:12;5.00;99.90
25973;DHT22;13765;51.166;4.466;2023-01-29T11:54:57;5.00;99.90
25973;DHT22;13765;51.166;4.466;2023-01-29T12:00:05;5.00;99.90
25973;DHT22;13765;51.166;4.466;2023-01-29T12:02:37;5.00;99.90
25973;DHT22;13765;51.166;4.466;2023-01-29T12:05:18;5.00;99.90
25973;DHT22;13765;51.166;4.466;2023-01-29T12:07:48;5.00;99.90
25973;DHT22;13765;51.166;4.466;2023-01-29T12:15:44;5.20;99.90
25973;DHT22;13765;51.166;4.466;2023-01-29T12:20:57;5.30;99.90
25973;DHT22;13765;51.166;4.466;2023-01-29T12:26:26;5.10;99.90
25973;DHT22;13765;51.166;4.466;2023-01-29T12:29:40;5.20;99.90
25973;DHT22;13765;51.166;4.466;2023-01-29T12:35:06;5.40;99.90
25973;DHT22;13765;51.166;4.466;2023-01-29T12:38:02;5.30;99.90
25973;DHT22;13765;51.166;4.466;2023-01-29T12:40:42;5.20;99.90
25973;DHT22;13765;51.166;4.466;2023-01-29T12:43:16;5.20;99.90
25973;DHT22;13765;51.166;4.466;2023-01-29T12:45:46;5.10;99.90
25973;DHT22;13765;51.166;4.466;2023-01-29T12:48:22;5.10;99.90
25973;DHT22;13765;51.166;4.466;2023-01-29T12:50:50;5.20;99.90
25973;DHT22;13765;51.166;4.466;2023-01-29T12:53:44;5.10;99.90
25973;DHT22;13765;51.166;4.466;2023-01-29T12:56:15;5.20;99.90
25973;DHT22;13765;51.166;4.466;2023-01-29T12:58:50;5.20;99.90
25973;DHT22;13765;51.166;4.466;2023-01-29T13:01:27;5.30;99.90
25973;DHT22;13765;51.166;4.466;2023-01-29T13:04:09;5.30;99.90
25973;DHT22;13765;51.166;4.466;2023-01-29T13:06:42;5.30;99.90
25973;DHT22;13765;51.166;4.466;2023-01-29T13:09:17;5.30;99.90
25973;DHT22;13765;51.166;4.466;2023-01-29T13:11:58;5.40;99.90
25973;DHT22;13765;51.166;4.466;2023-01-29T13:14:39;5.50;99.90
25973;DHT22;13765;51.166;4.466;2023-01-29T13:19:46;5.50;99.90
25973;DHT22;13765;51.166;4.466;2023-01-29T13:22:31;5.40;99.90
25973;DHT22;13765;51.166;4.466;2023-01-29T13:25:00;5.40;99.90
25973;DHT22;13765;51.166;4.466;2023-01-29T13:27:29;5.30;99.90
25973;DHT22;13765;51.166;4.466;2023-01-29T13:29:58;5.30;99.90
25973;DHT22;13765;51.166;4.466;2023-01-29T13:32:29;5.20;99.90
25973;DHT22;13765;51.166;4.466;2023-01-29T13:35:02;5.00;99.90
25973;DHT22;13765;51.166;4.466;2023-01-29T13:37:40;5.00;99.90
25973;DHT22;13765;51.166;4.466;2023-01-29T13:40:17;5.10;99.90
25973;DHT22;13765;51.166;4.466;2023-01-29T13:42:47;5.20;99.90
25973;DHT22;13765;51.166;4.466;2023-01-29T13:45:28;5.00;99.90
25973;DHT22;13765;51.166;4.466;2023-01-29T13:48:20;5.10;99.90
25973;DHT22;13765;51.166;4.466;2023-01-29T13:50:50;5.10;99.90
25973;DHT22;13765;51.166;4.466;2023-01-29T13:53:26;5.10;99.90
25973;DHT22;13765;51.166;4.466;2023-01-29T13:55:53;5.00;99.90
25973;DHT22;13765;51.166;4.466;2023-01-29T14:01:08;5.00;99.90
25973;DHT22;13765;51.166;4.466;2023-01-29T14:03:43;5.10;99.90
25973;DHT22;13765;51.166;4.466;2023-01-29T14:06:09;5.00;99.90
25973;DHT22;13765;51.166;4.466;2023-01-29T14:13:46;4.90;99.90
25973;DHT22;13765;51.166;4.466;2023-01-29T14:18:56;5.10;99.90
25973;DHT22;13765;51.166;4.466;2023-01-29T14:21:24;5.10;99.90
25973;DHT22;13765;51.166;4.466;2023-01-29T14:23:57;5.00;99.90
25973;DHT22;13765;51.166;4.466;2023-01-29T14:26:43;5.00;99.90
25973;DHT22;13765;51.166;4.466;2023-01-29T14:29:27;5.10;99.90
25973;DHT22;13765;51.166;4.466;2023-01-29T14:34:35;5.00;99.90
25973;DHT22;13765;51.166;4.466;2023-01-29T14:39:50;4.90;99.90
25973;DHT22;13765;51.166;4.466;2023-01-29T14:42:31;5.00;99.90
25973;DHT22;13765;51.166;4.466;2023-01-29T14:45:06;5.00;99.90
25973;DHT22;13765;51.166;4.466;2023-01-29T14:50:00;5.00;99.90
25973;DHT22;13765;51.166;4.466;2023-01-29T14:52:41;5.10;99.90
25973;DHT22;13765;51.166;4.466;2023-01-29T14:57:57;5.20;99.90
25973;DHT22;13765;51.166;4.466;2023-01-29T15:00:27;5.20;99.90
25973;DHT22;13765;51.166;4.466;2023-01-29T15:02:53;5.30;99.90
25973;DHT22;13765;51.166;4.466;2023-01-29T15:05:34;5.20;99.90
25973;DHT22;13765;51.166;4.466;2023-01-29T15:08:22;5.20;99.90
25973;DHT22;13765;51.166;4.466;2023-01-29T15:10:55;5.10;99.90
25973;DHT22;13765;51.166;4.466;2023-01-29T15:13:59;5.10;99.90
25973;DHT22;13765;51.166;4.466;2023-01-29T15:19:51;5.10;99.90
25973;DHT22;13765;51.166;4.466;2023-01-29T15:22:20;5.10;99.90
25973;DHT22;13765;51.166;4.466;2023-01-29T15:25:06;5.10;99.90
25973;DHT22;13765;51.166;4.466;2023-01-29T15:27:40;5.00;99.90
25973;DHT22;13765;51.166;4.466;2023-01-29T15:30:16;5.00;99.90
25973;DHT22;13765;51.166;4.466;2023-01-29T15:32:46;5.10;99.90
25973;DHT22;13765;51.166;4.466;2023-01-29T15:38:04;5.00;99.90
25973;DHT22;13765;51.166;4.466;2023-01-29T15:40:31;5.10;99.90
25973;DHT22;13765;51.166;4.466;2023-01-29T15:42:57;5.30;99.90
25973;DHT22;13765;51.166;4.466;2023-01-29T15:45:28;5.20;99.90
25973;DHT22;13765;51.166;4.466;2023-01-29T15:48:06;5.20;99.90
25973;DHT22;13765;51.166;4.466;2023-01-29T15:50:36;5.30;99.90
25973;DHT22;13765;51.166;4.466;2023-01-29T15:53:07;5.10;99.90
25973;DHT22;13765;51.166;4.466;2023-01-29T15:55:34;5.00;99.90
25973;DHT22;13765;51.166;4.466;2023-01-29T15:58:00;5.20;99.90
25973;DHT22;13765;51.166;4.466;2023-01-29T16:00:27;5.10;99.90
25973;DHT22;13765;51.166;4.466;2023-01-29T16:02:56;5.10;99.90
25973;DHT22;13765;51.166;4.466;2023-01-29T16:05:33;5.00;99.90
25973;DHT22;13765;51.166;4.466;2023-01-29T16:07:59;5.00;99.90
25973;DHT22;13765;51.166;4.466;2023-01-29T16:10:28;5.00;99.90
25973;DHT22;13765;51.166;4.466;2023-01-29T16:12:55;4.90;99.90
25973;DHT22;13765;51.166;4.466;2023-01-29T16:18:21;4.90;99.90
25973;DHT22;13765;51.166;4.466;2023-01-29T16:20:51;5.00;99.90
25973;DHT22;13765;51.166;4.466;2023-01-29T16:23:26;4.90;99.90
25973;DHT22;13765;51.166;4.466;2023-01-29T16:25:55;4.90;99.90
25973;DHT22;13765;51.166;4.466;2023-01-29T16:28:28;4.90;99.90
25973;DHT22;13765;51.166;4.466;2023-01-29T16:30:58;4.80;99.90
25973;DHT22;13765;51.166;4.466;2023-01-29T16:33:33;4.90;99.90
25973;DHT22;13765;51.166;4.466;2023-01-29T16:35:59;4.80;99.90
25973;DHT22;13765;51.166;4.466;2023-01-29T16:38:28;4.80;99.90
25973;DHT22;13765;51.166;4.466;2023-01-29T16:41:33;4.70;99.90
25973;DHT22;13765;51.166;4.466;2023-01-29T16:44:32;4.70;99.90
25973;DHT22;13765;51.166;4.466;2023-01-29T16:47:19;4.70;99.90
25973;DHT22;13765;51.166;4.466;2023-01-29T16:49:52;4.70;99.90
25973;DHT22;13765;51.166;4.466;2023-01-29T16:52:30;4.70;99.90
25973;DHT22;13765;51.166;4.466;2023-01-29T16:57:38;4.60;99.90
25973;DHT22;13765;51.166;4.466;2023-01-29T17:00:07;4.60;99.90
25973;DHT22;13765;51.166;4.466;2023-01-29T17:02:38;4.60;99.90
25973;DHT22;13765;51.166;4.466;2023-01-29T17:05:16;4.50;99.90
25973;DHT22;13765;51.166;4.466;2023-01-29T17:07:47;4.50;99.90
25973;DHT22;13765;51.166;4.466;2023-01-29T17:10:23;4.50;99.90
25973;DHT22;13765;51.166;4.466;2023-01-29T17:13:01;4.60;99.90
25973;DHT22;13765;51.166;4.466;2023-01-29T17:20:40;4.30;99.90
25973;DHT22;13765;51.166;4.466;2023-01-29T17:23:06;4.40;99.90
25973;DHT22;13765;51.166;4.466;2023-01-29T17:25:35;4.40;99.90
25973;DHT22;13765;51.166;4.466;2023-01-29T17:28:03;4.40;99.90
25973;DHT22;13765;51.166;4.466;2023-01-29T17:30:33;4.30;99.90
25973;DHT22;13765;51.166;4.466;2023-01-29T17:33:12;4.30;99.90
25973;DHT22;13765;51.166;4.466;2023-01-29T17:35:41;4.40;99.90
25973;DHT22;13765;51.166;4.466;2023-01-29T17:38:12;4.40;99.90
25973;DHT22;13765;51.166;4.466;2023-01-29T17:40:50;4.40;99.90
25973;DHT22;13765;51.166;4.466;2023-01-29T17:43:17;4.40;99.90
25973;DHT22;13765;51.166;4.466;2023-01-29T17:45:45;4.40;99.90
25973;DHT22;13765;51.166;4.466;2023-01-29T17:48:22;4.30;99.90
25973;DHT22;13765;51.166;4.466;2023-01-29T17:50:55;4.40;99.90
25973;DHT22;13765;51.166;4.466;2023-01-29T17:53:23;4.50;99.90
25973;DHT22;13765;51.166;4.466;2023-01-29T17:55:51;4.50;99.90
25973;DHT22;13765;51.166;4.466;2023-01-29T17:58:20;4.50;99.90
25973;DHT22;13765;51.166;4.466;2023-01-29T18:00:47;4.50;99.90
25973;DHT22;13765;51.166;4.466;2023-01-29T18:03:14;4.50;99.90
25973;DHT22;13765;51.166;4.466;2023-01-29T18:05:44;4.60;99.90
25973;DHT22;13765;51.166;4.466;2023-01-29T18:08:23;4.50;99.90
25973;DHT22;13765;51.166;4.466;2023-01-29T18:10:51;4.50;99.90
25973;DHT22;13765;51.166;4.466;2023-01-29T18:13:17;4.50;99.90
25973;DHT22;13765;51.166;4.466;2023-01-29T18:15:45;4.50;99.90
25973;DHT22;13765;51.166;4.466;2023-01-29T18:18:17;4.60;99.90
25973;DHT22;13765;51.166;4.466;2023-01-29T18:20:43;4.60;99.90
25973;DHT22;13765;51.166;4.466;2023-01-29T18:23:10;4.50;99.90
25973;DHT22;13765;51.166;4.466;2023-01-29T18:25:36;4.50;99.90
25973;DHT22;13765;51.166;4.466;2023-01-29T18:28:05;4.60;99.90
25973;DHT22;13765;51.166;4.466;2023-01-29T18:30:36;4.50;99.90
25973;DHT22;13765;51.166;4.466;2023-01-29T18:33:02;4.50;99.90
25973;DHT22;13765;51.166;4.466;2023-01-29T18:35:28;4.50;99.90
25973;DHT22;13765;51.166;4.466;2023-01-29T18:37:56;4.50;99.90
25973;DHT22;13765;51.166;4.466;2023-01-29T18:40:22;4.50;99.90
25973;DHT22;13765;51.166;4.466;2023-01-29T18:42:51;4.50;99.90
25973;DHT22;13765;51.166;4.466;2023-01-29T18:45:20;4.40;99.90
25973;DHT22;13765;51.166;4.466;2023-01-29T18:47:46;4.50;99.90
25973;DHT22;13765;51.166;4.466;2023-01-29T18:50:13;4.50;99.90